Terminal Aerodrome Forecast
Issued by NWS Central Illinois

Home | Current Version | Previous Version | Text Only | Print | Product List | Glossary On
Versions: 1 2 3 4 5 6 7 8 9 10 11 12 13 14 15
592
FTUS43 KILX 261446 AAA
TAFSPI
TAF AMD
KSPI 261446Z 2615/2712 21012KT P6SM OVC019
     FM261900 20012KT 4SM SHRA VCTS SCT015 OVC025CB
     FM270000 26008KT 3SM +SHRA VCTS OVC015CB
     FM270300 31011KT 6SM -SHRA OVC008=

USA.gov is the U.S. government's official web portal to all federal, state and local government web resources and services.